sensor_id;sensor_type;location;lat;lon;timestamp;P1;durP1;ratioP1;P2;durP2;ratioP2
24261;SDS011;12385;51.412;5.540;2022-07-03T00:00:24;4.20;;;1.92;;
24261;SDS011;12385;51.412;5.540;2022-07-03T00:02:50;4.78;;;1.90;;
24261;SDS011;12385;51.412;5.540;2022-07-03T00:05:15;3.08;;;1.83;;
24261;SDS011;12385;51.412;5.540;2022-07-03T00:07:41;5.35;;;1.70;;
24261;SDS011;12385;51.412;5.540;2022-07-03T00:10:07;4.50;;;1.80;;
24261;SDS011;12385;51.412;5.540;2022-07-03T00:12:33;3.63;;;1.70;;
24261;SDS011;12385;51.412;5.540;2022-07-03T00:14:59;3.35;;;1.65;;
24261;SDS011;12385;51.412;5.540;2022-07-03T00:17:25;3.85;;;1.90;;
24261;SDS011;12385;51.412;5.540;2022-07-03T00:19:50;2.60;;;1.63;;
24261;SDS011;12385;51.412;5.540;2022-07-03T00:22:16;4.75;;;1.70;;
24261;SDS011;12385;51.412;5.540;2022-07-03T00:24:58;7.75;;;1.98;;
24261;SDS011;12385;51.412;5.540;2022-07-03T00:27:27;6.10;;;2.05;;
24261;SDS011;12385;51.412;5.540;2022-07-03T00:29:56;4.20;;;2.00;;
24261;SDS011;12385;51.412;5.540;2022-07-03T00:32:25;5.88;;;1.60;;
24261;SDS011;12385;51.412;5.540;2022-07-03T00:34:52;2.97;;;1.50;;
24261;SDS011;12385;51.412;5.540;2022-07-03T00:37:19;3.45;;;1.73;;
24261;SDS011;12385;51.412;5.540;2022-07-03T00:39:46;4.03;;;1.50;;
24261;SDS011;12385;51.412;5.540;2022-07-03T00:42:13;4.18;;;1.70;;
24261;SDS011;12385;51.412;5.540;2022-07-03T00:44:45;4.63;;;1.92;;
24261;SDS011;12385;51.412;5.540;2022-07-03T00:47:13;3.28;;;1.65;;
24261;SDS011;12385;51.412;5.540;2022-07-03T00:49:40;3.17;;;1.75;;
24261;SDS011;12385;51.412;5.540;2022-07-03T00:52:09;3.90;;;1.60;;
24261;SDS011;12385;51.412;5.540;2022-07-03T00:54:38;6.07;;;1.63;;
24261;SDS011;12385;51.412;5.540;2022-07-03T00:57:08;4.43;;;1.73;;
24261;SDS011;12385;51.412;5.540;2022-07-03T00:59:40;3.47;;;2.10;;
24261;SDS011;12385;51.412;5.540;2022-07-03T01:02:07;4.45;;;2.00;;
24261;SDS011;12385;51.412;5.540;2022-07-03T01:07:11;4.60;;;2.90;;
24261;SDS011;12385;51.412;5.540;2022-07-03T01:09:48;5.22;;;3.05;;
24261;SDS011;12385;51.412;5.540;2022-07-03T01:17:48;10.00;;;3.10;;
24261;SDS011;12385;51.412;5.540;2022-07-03T01:20:28;5.60;;;2.97;;
24261;SDS011;12385;51.412;5.540;2022-07-03T01:23:00;7.45;;;3.13;;
24261;SDS011;12385;51.412;5.540;2022-07-03T01:25:26;8.68;;;3.03;;
24261;SDS011;12385;51.412;5.540;2022-07-03T01:28:12;9.10;;;3.30;;
24261;SDS011;12385;51.412;5.540;2022-07-03T01:30:40;6.00;;;3.40;;
24261;SDS011;12385;51.412;5.540;2022-07-03T01:33:18;7.88;;;3.17;;
24261;SDS011;12385;51.412;5.540;2022-07-03T01:35:54;6.25;;;3.30;;
24261;SDS011;12385;51.412;5.540;2022-07-03T01:38:29;5.40;;;3.40;;
24261;SDS011;12385;51.412;5.540;2022-07-03T01:40:57;8.23;;;3.60;;
24261;SDS011;12385;51.412;5.540;2022-07-03T01:43:33;5.25;;;2.92;;
24261;SDS011;12385;51.412;5.540;2022-07-03T01:46:02;5.50;;;3.45;;
24261;SDS011;12385;51.412;5.540;2022-07-03T01:48:29;9.27;;;3.78;;
24261;SDS011;12385;51.412;5.540;2022-07-03T01:50:56;10.85;;;4.40;;
24261;SDS011;12385;51.412;5.540;2022-07-03T01:53:29;5.97;;;3.72;;
24261;SDS011;12385;51.412;5.540;2022-07-03T01:55:55;6.55;;;3.92;;
24261;SDS011;12385;51.412;5.540;2022-07-03T01:58:22;10.02;;;3.95;;
24261;SDS011;12385;51.412;5.540;2022-07-03T02:03:33;6.22;;;4.13;;
24261;SDS011;12385;51.412;5.540;2022-07-03T02:06:36;10.93;;;4.13;;
24261;SDS011;12385;51.412;5.540;2022-07-03T02:09:03;6.22;;;3.92;;
24261;SDS011;12385;51.412;5.540;2022-07-03T02:11:40;6.70;;;4.10;;
24261;SDS011;12385;51.412;5.540;2022-07-03T02:14:10;7.57;;;4.15;;
24261;SDS011;12385;51.412;5.540;2022-07-03T02:22:21;10.48;;;4.55;;
24261;SDS011;12385;51.412;5.540;2022-07-03T02:25:07;7.13;;;4.45;;
24261;SDS011;12385;51.412;5.540;2022-07-03T02:30:51;6.25;;;4.43;;
24261;SDS011;12385;51.412;5.540;2022-07-03T02:33:24;7.05;;;4.00;;
24261;SDS011;12385;51.412;5.540;2022-07-03T02:35:53;6.93;;;4.97;;
24261;SDS011;12385;51.412;5.540;2022-07-03T02:46:11;7.75;;;4.85;;
24261;SDS011;12385;51.412;5.540;2022-07-03T02:49:11;8.20;;;4.95;;
24261;SDS011;12385;51.412;5.540;2022-07-03T02:51:44;8.50;;;4.30;;
24261;SDS011;12385;51.412;5.540;2022-07-03T02:54:23;7.47;;;4.60;;
24261;SDS011;12385;51.412;5.540;2022-07-03T03:02:36;8.57;;;5.53;;
24261;SDS011;12385;51.412;5.540;2022-07-03T03:05:26;9.70;;;5.47;;
24261;SDS011;12385;51.412;5.540;2022-07-03T03:08:11;8.70;;;5.75;;
24261;SDS011;12385;51.412;5.540;2022-07-03T03:10:42;10.38;;;6.13;;
24261;SDS011;12385;51.412;5.540;2022-07-03T03:13:12;10.25;;;6.13;;
24261;SDS011;12385;51.412;5.540;2022-07-03T03:15:47;7.55;;;5.80;;
24261;SDS011;12385;51.412;5.540;2022-07-03T03:18:22;6.65;;;5.68;;
24261;SDS011;12385;51.412;5.540;2022-07-03T03:20:53;9.00;;;5.25;;
24261;SDS011;12385;51.412;5.540;2022-07-03T03:26:03;18.88;;;5.30;;
24261;SDS011;12385;51.412;5.540;2022-07-03T03:28:29;7.45;;;5.28;;
24261;SDS011;12385;51.412;5.540;2022-07-03T03:30:55;7.95;;;5.03;;
24261;SDS011;12385;51.412;5.540;2022-07-03T03:33:21;10.43;;;5.47;;
24261;SDS011;12385;51.412;5.540;2022-07-03T03:35:47;12.38;;;6.65;;
24261;SDS011;12385;51.412;5.540;2022-07-03T03:38:13;13.57;;;7.65;;
24261;SDS011;12385;51.412;5.540;2022-07-03T03:40:40;12.20;;;8.10;;
24261;SDS011;12385;51.412;5.540;2022-07-03T03:43:05;12.32;;;9.27;;
24261;SDS011;12385;51.412;5.540;2022-07-03T03:45:31;16.20;;;11.38;;
24261;SDS011;12385;51.412;5.540;2022-07-03T03:47:56;12.88;;;7.80;;
24261;SDS011;12385;51.412;5.540;2022-07-03T03:50:22;12.40;;;8.82;;
24261;SDS011;12385;51.412;5.540;2022-07-03T03:52:49;14.00;;;10.30;;
24261;SDS011;12385;51.412;5.540;2022-07-03T03:55:14;15.25;;;10.88;;
24261;SDS011;12385;51.412;5.540;2022-07-03T03:57:40;15.05;;;10.30;;
24261;SDS011;12385;51.412;5.540;2022-07-03T04:00:06;12.45;;;9.15;;
24261;SDS011;12385;51.412;5.540;2022-07-03T04:02:33;13.38;;;9.35;;
24261;SDS011;12385;51.412;5.540;2022-07-03T04:04:59;14.13;;;11.20;;
24261;SDS011;12385;51.412;5.540;2022-07-03T04:07:25;17.25;;;11.90;;
24261;SDS011;12385;51.412;5.540;2022-07-03T04:09:50;17.00;;;12.68;;
24261;SDS011;12385;51.412;5.540;2022-07-03T04:12:16;16.90;;;13.65;;
24261;SDS011;12385;51.412;5.540;2022-07-03T04:14:42;18.30;;;13.13;;
24261;SDS011;12385;51.412;5.540;2022-07-03T04:17:07;20.55;;;13.57;;
24261;SDS011;12385;51.412;5.540;2022-07-03T04:19:33;17.17;;;13.27;;
24261;SDS011;12385;51.412;5.540;2022-07-03T04:21:58;17.67;;;13.15;;
24261;SDS011;12385;51.412;5.540;2022-07-03T04:24:24;17.40;;;13.43;;
24261;SDS011;12385;51.412;5.540;2022-07-03T04:26:50;14.70;;;11.38;;
24261;SDS011;12385;51.412;5.540;2022-07-03T04:29:15;14.23;;;10.98;;
24261;SDS011;12385;51.412;5.540;2022-07-03T04:31:41;11.25;;;9.68;;
24261;SDS011;12385;51.412;5.540;2022-07-03T04:34:07;14.88;;;8.80;;
24261;SDS011;12385;51.412;5.540;2022-07-03T04:36:33;12.68;;;8.25;;
24261;SDS011;12385;51.412;5.540;2022-07-03T04:38:58;9.52;;;8.23;;
24261;SDS011;12385;51.412;5.540;2022-07-03T04:41:24;13.13;;;7.60;;
24261;SDS011;12385;51.412;5.540;2022-07-03T04:43:49;9.32;;;7.55;;
24261;SDS011;12385;51.412;5.540;2022-07-03T04:46:15;10.63;;;7.25;;
24261;SDS011;12385;51.412;5.540;2022-07-03T04:48:41;8.50;;;6.70;;
24261;SDS011;12385;51.412;5.540;2022-07-03T04:51:07;11.05;;;7.25;;
24261;SDS011;12385;51.412;5.540;2022-07-03T04:53:32;12.15;;;7.10;;
24261;SDS011;12385;51.412;5.540;2022-07-03T04:55:58;9.20;;;6.47;;
24261;SDS011;12385;51.412;5.540;2022-07-03T04:58:24;10.88;;;6.13;;
24261;SDS011;12385;51.412;5.540;2022-07-03T05:00:50;8.82;;;6.38;;
24261;SDS011;12385;51.412;5.540;2022-07-03T05:03:16;10.25;;;6.72;;
24261;SDS011;12385;51.412;5.540;2022-07-03T05:05:41;7.28;;;5.93;;
24261;SDS011;12385;51.412;5.540;2022-07-03T05:08:07;6.68;;;5.53;;
24261;SDS011;12385;51.412;5.540;2022-07-03T05:10:33;9.20;;;5.90;;
24261;SDS011;12385;51.412;5.540;2022-07-03T05:12:59;10.30;;;6.15;;
24261;SDS011;12385;51.412;5.540;2022-07-03T05:15:24;11.25;;;6.32;;
24261;SDS011;12385;51.412;5.540;2022-07-03T05:17:50;7.63;;;5.57;;
24261;SDS011;12385;51.412;5.540;2022-07-03T05:20:16;7.93;;;5.00;;
24261;SDS011;12385;51.412;5.540;2022-07-03T05:22:56;7.43;;;5.57;;
24261;SDS011;12385;51.412;5.540;2022-07-03T05:25:24;12.77;;;5.45;;
24261;SDS011;12385;51.412;5.540;2022-07-03T05:27:50;9.63;;;5.32;;
24261;SDS011;12385;51.412;5.540;2022-07-03T05:30:17;8.95;;;4.72;;
24261;SDS011;12385;51.412;5.540;2022-07-03T05:32:44;13.30;;;5.45;;
24261;SDS011;12385;51.412;5.540;2022-07-03T05:35:09;11.50;;;5.15;;
24261;SDS011;12385;51.412;5.540;2022-07-03T05:37:35;10.48;;;4.95;;
24261;SDS011;12385;51.412;5.540;2022-07-03T05:40:01;11.77;;;4.30;;
24261;SDS011;12385;51.412;5.540;2022-07-03T05:42:28;5.53;;;4.32;;
24261;SDS011;12385;51.412;5.540;2022-07-03T05:44:56;11.68;;;4.25;;
24261;SDS011;12385;51.412;5.540;2022-07-03T05:47:22;7.28;;;4.18;;
24261;SDS011;12385;51.412;5.540;2022-07-03T05:49:47;10.63;;;4.60;;
24261;SDS011;12385;51.412;5.540;2022-07-03T05:52:13;8.95;;;4.32;;
24261;SDS011;12385;51.412;5.540;2022-07-03T05:54:39;10.07;;;4.28;;
24261;SDS011;12385;51.412;5.540;2022-07-03T05:57:05;8.55;;;4.10;;
24261;SDS011;12385;51.412;5.540;2022-07-03T05:59:30;5.63;;;3.55;;
24261;SDS011;12385;51.412;5.540;2022-07-03T06:01:56;7.03;;;3.50;;
24261;SDS011;12385;51.412;5.540;2022-07-03T06:04:22;10.23;;;3.63;;
24261;SDS011;12385;51.412;5.540;2022-07-03T06:06:47;5.55;;;3.35;;
24261;SDS011;12385;51.412;5.540;2022-07-03T06:09:14;7.82;;;3.33;;
24261;SDS011;12385;51.412;5.540;2022-07-03T06:11:39;9.02;;;3.30;;
24261;SDS011;12385;51.412;5.540;2022-07-03T06:14:05;7.13;;;3.15;;
24261;SDS011;12385;51.412;5.540;2022-07-03T06:16:31;9.38;;;3.30;;
24261;SDS011;12385;51.412;5.540;2022-07-03T06:18:57;10.57;;;3.50;;
24261;SDS011;12385;51.412;5.540;2022-07-03T06:21:23;9.85;;;3.80;;
24261;SDS011;12385;51.412;5.540;2022-07-03T06:23:48;8.13;;;3.17;;
24261;SDS011;12385;51.412;5.540;2022-07-03T06:26:14;10.52;;;3.63;;
24261;SDS011;12385;51.412;5.540;2022-07-03T06:28:40;10.02;;;3.95;;
24261;SDS011;12385;51.412;5.540;2022-07-03T06:31:06;7.95;;;3.90;;
24261;SDS011;12385;51.412;5.540;2022-07-03T06:33:32;12.70;;;3.30;;
24261;SDS011;12385;51.412;5.540;2022-07-03T06:35:57;9.63;;;3.67;;
24261;SDS011;12385;51.412;5.540;2022-07-03T06:38:23;7.47;;;3.53;;
24261;SDS011;12385;51.412;5.540;2022-07-03T06:40:49;9.63;;;3.60;;
24261;SDS011;12385;51.412;5.540;2022-07-03T06:43:15;11.30;;;3.67;;
24261;SDS011;12385;51.412;5.540;2022-07-03T06:45:41;12.38;;;3.35;;
24261;SDS011;12385;51.412;5.540;2022-07-03T06:48:06;7.10;;;3.20;;
24261;SDS011;12385;51.412;5.540;2022-07-03T06:50:32;8.43;;;3.22;;
24261;SDS011;12385;51.412;5.540;2022-07-03T06:52:57;9.65;;;2.97;;
24261;SDS011;12385;51.412;5.540;2022-07-03T06:55:23;10.35;;;3.20;;
24261;SDS011;12385;51.412;5.540;2022-07-03T06:57:49;6.55;;;2.85;;
24261;SDS011;12385;51.412;5.540;2022-07-03T07:00:15;6.65;;;3.05;;
24261;SDS011;12385;51.412;5.540;2022-07-03T07:02:40;10.63;;;3.20;;
24261;SDS011;12385;51.412;5.540;2022-07-03T07:05:06;8.63;;;3.42;;
24261;SDS011;12385;51.412;5.540;2022-07-03T07:07:32;8.70;;;3.55;;
24261;SDS011;12385;51.412;5.540;2022-07-03T07:09:58;6.32;;;3.15;;
24261;SDS011;12385;51.412;5.540;2022-07-03T07:12:23;6.65;;;3.72;;
24261;SDS011;12385;51.412;5.540;2022-07-03T07:14:50;7.10;;;3.08;;
24261;SDS011;12385;51.412;5.540;2022-07-03T07:17:18;9.23;;;3.38;;
24261;SDS011;12385;51.412;5.540;2022-07-03T07:19:44;6.97;;;2.80;;
24261;SDS011;12385;51.412;5.540;2022-07-03T07:22:09;8.07;;;3.05;;
24261;SDS011;12385;51.412;5.540;2022-07-03T07:24:35;7.28;;;2.72;;
24261;SDS011;12385;51.412;5.540;2022-07-03T07:27:01;7.22;;;3.10;;
24261;SDS011;12385;51.412;5.540;2022-07-03T07:29:26;5.55;;;2.72;;
24261;SDS011;12385;51.412;5.540;2022-07-03T07:31:52;5.75;;;3.13;;
24261;SDS011;12385;51.412;5.540;2022-07-03T07:34:17;7.97;;;3.00;;
24261;SDS011;12385;51.412;5.540;2022-07-03T07:36:43;5.68;;;2.97;;
24261;SDS011;12385;51.412;5.540;2022-07-03T07:39:09;7.05;;;2.80;;
24261;SDS011;12385;51.412;5.540;2022-07-03T07:41:35;7.63;;;3.30;;
24261;SDS011;12385;51.412;5.540;2022-07-03T07:44:01;9.23;;;3.53;;
24261;SDS011;12385;51.412;5.540;2022-07-03T07:46:27;8.85;;;3.40;;
24261;SDS011;12385;51.412;5.540;2022-07-03T07:48:53;8.95;;;3.00;;
24261;SDS011;12385;51.412;5.540;2022-07-03T07:51:19;5.63;;;3.20;;
24261;SDS011;12385;51.412;5.540;2022-07-03T07:53:44;7.18;;;2.78;;
24261;SDS011;12385;51.412;5.540;2022-07-03T07:56:10;6.18;;;2.60;;
24261;SDS011;12385;51.412;5.540;2022-07-03T07:58:36;6.25;;;2.53;;
24261;SDS011;12385;51.412;5.540;2022-07-03T08:01:01;5.55;;;2.40;;
24261;SDS011;12385;51.412;5.540;2022-07-03T08:03:45;8.50;;;2.40;;
24261;SDS011;12385;51.412;5.540;2022-07-03T08:06:30;7.38;;;2.88;;
24261;SDS011;12385;51.412;5.540;2022-07-03T08:08:56;5.82;;;2.70;;
24261;SDS011;12385;51.412;5.540;2022-07-03T08:11:21;5.70;;;2.92;;
24261;SDS011;12385;51.412;5.540;2022-07-03T08:13:47;7.68;;;2.88;;
24261;SDS011;12385;51.412;5.540;2022-07-03T08:16:13;9.55;;;3.50;;
24261;SDS011;12385;51.412;5.540;2022-07-03T08:18:39;8.15;;;3.70;;
24261;SDS011;12385;51.412;5.540;2022-07-03T08:21:04;6.43;;;2.70;;
24261;SDS011;12385;51.412;5.540;2022-07-03T08:23:30;4.63;;;2.42;;
24261;SDS011;12385;51.412;5.540;2022-07-03T08:25:56;5.22;;;2.30;;
24261;SDS011;12385;51.412;5.540;2022-07-03T08:28:22;4.65;;;2.33;;
24261;SDS011;12385;51.412;5.540;2022-07-03T08:30:48;5.70;;;2.58;;
24261;SDS011;12385;51.412;5.540;2022-07-03T08:33:14;5.95;;;2.47;;
24261;SDS011;12385;51.412;5.540;2022-07-03T08:35:40;5.78;;;2.30;;
24261;SDS011;12385;51.412;5.540;2022-07-03T08:38:05;5.32;;;2.20;;
24261;SDS011;12385;51.412;5.540;2022-07-03T08:40:31;5.95;;;2.40;;
24261;SDS011;12385;51.412;5.540;2022-07-03T08:42:58;6.13;;;2.42;;
24261;SDS011;12385;51.412;5.540;2022-07-03T08:45:30;5.97;;;2.40;;
24261;SDS011;12385;51.412;5.540;2022-07-03T08:48:00;5.40;;;2.40;;
24261;SDS011;12385;51.412;5.540;2022-07-03T08:50:27;6.25;;;3.20;;
24261;SDS011;12385;51.412;5.540;2022-07-03T08:52:54;6.07;;;2.25;;
24261;SDS011;12385;51.412;5.540;2022-07-03T08:55:20;3.85;;;1.80;;
24261;SDS011;12385;51.412;5.540;2022-07-03T08:57:46;7.18;;;2.25;;
24261;SDS011;12385;51.412;5.540;2022-07-03T09:00:13;4.07;;;2.00;;
24261;SDS011;12385;51.412;5.540;2022-07-03T09:02:42;7.30;;;1.90;;
24261;SDS011;12385;51.412;5.540;2022-07-03T09:05:10;3.70;;;1.90;;
24261;SDS011;12385;51.412;5.540;2022-07-03T09:07:37;6.63;;;2.53;;
24261;SDS011;12385;51.412;5.540;2022-07-03T09:10:05;5.05;;;1.85;;
24261;SDS011;12385;51.412;5.540;2022-07-03T09:12:33;6.57;;;2.03;;
24261;SDS011;12385;51.412;5.540;2022-07-03T09:14:59;4.82;;;1.65;;
24261;SDS011;12385;51.412;5.540;2022-07-03T09:17:27;3.60;;;1.73;;
24261;SDS011;12385;51.412;5.540;2022-07-03T09:19:53;3.65;;;1.70;;
24261;SDS011;12385;51.412;5.540;2022-07-03T09:22:23;4.60;;;1.70;;
24261;SDS011;12385;51.412;5.540;2022-07-03T09:24:52;4.75;;;1.77;;
24261;SDS011;12385;51.412;5.540;2022-07-03T09:27:48;5.70;;;1.80;;
24261;SDS011;12385;51.412;5.540;2022-07-03T09:30:15;5.97;;;1.55;;
24261;SDS011;12385;51.412;5.540;2022-07-03T09:32:45;2.88;;;1.20;;
24261;SDS011;12385;51.412;5.540;2022-07-03T09:35:19;5.60;;;1.50;;
24261;SDS011;12385;51.412;5.540;2022-07-03T09:38:10;3.05;;;1.30;;
24261;SDS011;12385;51.412;5.540;2022-07-03T09:43:29;3.58;;;0.90;;
24261;SDS011;12385;51.412;5.540;2022-07-03T09:45:56;3.50;;;1.00;;
24261;SDS011;12385;51.412;5.540;2022-07-03T09:48:36;3.33;;;1.17;;
24261;SDS011;12385;51.412;5.540;2022-07-03T09:51:17;2.53;;;1.20;;
24261;SDS011;12385;51.412;5.540;2022-07-03T09:54:02;3.25;;;0.93;;
24261;SDS011;12385;51.412;5.540;2022-07-03T09:56:34;3.20;;;0.85;;
24261;SDS011;12385;51.412;5.540;2022-07-03T10:01:33;4.53;;;0.98;;
24261;SDS011;12385;51.412;5.540;2022-07-03T10:06:56;5.53;;;0.80;;
24261;SDS011;12385;51.412;5.540;2022-07-03T10:09:30;6.85;;;1.10;;
24261;SDS011;12385;51.412;5.540;2022-07-03T10:11:57;6.60;;;1.30;;
24261;SDS011;12385;51.412;5.540;2022-07-03T10:14:30;3.38;;;1.17;;
24261;SDS011;12385;51.412;5.540;2022-07-03T10:16:57;3.97;;;1.35;;
24261;SDS011;12385;51.412;5.540;2022-07-03T10:19:30;5.97;;;1.17;;
24261;SDS011;12385;51.412;5.540;2022-07-03T10:22:10;3.85;;;1.15;;
24261;SDS011;12385;51.412;5.540;2022-07-03T10:24:44;5.80;;;0.93;;
24261;SDS011;12385;51.412;5.540;2022-07-03T10:27:13;2.08;;;1.00;;
24261;SDS011;12385;51.412;5.540;2022-07-03T10:29:40;2.40;;;0.65;;
24261;SDS011;12385;51.412;5.540;2022-07-03T10:32:07;2.65;;;0.90;;
24261;SDS011;12385;51.412;5.540;2022-07-03T10:34:33;4.80;;;0.95;;
24261;SDS011;12385;51.412;5.540;2022-07-03T10:37:03;5.65;;;0.85;;
24261;SDS011;12385;51.412;5.540;2022-07-03T10:42:04;4.97;;;0.70;;
24261;SDS011;12385;51.412;5.540;2022-07-03T10:47:51;4.15;;;0.60;;
24261;SDS011;12385;51.412;5.540;2022-07-03T10:50:18;2.28;;;0.40;;
24261;SDS011;12385;51.412;5.540;2022-07-03T10:52:46;1.98;;;0.60;;
24261;SDS011;12385;51.412;5.540;2022-07-03T10:55:14;2.97;;;0.60;;
24261;SDS011;12385;51.412;5.540;2022-07-03T11:00:51;1.90;;;0.60;;
24261;SDS011;12385;51.412;5.540;2022-07-03T11:04:04;1.85;;;0.40;;
24261;SDS011;12385;51.412;5.540;2022-07-03T11:06:18;3.70;;;0.50;;
24261;SDS011;12385;51.412;5.540;2022-07-03T11:09:02;2.03;;;0.57;;
24261;SDS011;12385;51.412;5.540;2022-07-03T11:11:50;6.00;;;0.57;;
24261;SDS011;12385;51.412;5.540;2022-07-03T11:14:23;1.70;;;0.47;;
24261;SDS011;12385;51.412;5.540;2022-07-03T11:17:11;2.72;;;0.60;;
24261;SDS011;12385;51.412;5.540;2022-07-03T11:19:41;4.05;;;1.58;;
24261;SDS011;12385;51.412;5.540;2022-07-03T11:22:08;4.60;;;1.25;;
24261;SDS011;12385;51.412;5.540;2022-07-03T11:24:45;3.78;;;0.90;;
24261;SDS011;12385;51.412;5.540;2022-07-03T11:27:17;5.22;;;0.80;;
24261;SDS011;12385;51.412;5.540;2022-07-03T11:29:52;2.72;;;0.90;;
24261;SDS011;12385;51.412;5.540;2022-07-03T11:38:15;3.10;;;0.85;;
24261;SDS011;12385;51.412;5.540;2022-07-03T11:40:42;4.45;;;0.70;;
24261;SDS011;12385;51.412;5.540;2022-07-03T11:43:10;3.38;;;0.63;;
24261;SDS011;12385;51.412;5.540;2022-07-03T11:45:37;2.45;;;0.60;;
24261;SDS011;12385;51.412;5.540;2022-07-03T11:48:05;2.53;;;0.70;;
24261;SDS011;12385;51.412;5.540;2022-07-03T11:50:36;2.20;;;0.52;;
24261;SDS011;12385;51.412;5.540;2022-07-03T11:56:09;3.20;;;0.65;;
24261;SDS011;12385;51.412;5.540;2022-07-03T12:01:34;3.08;;;0.70;;
24261;SDS011;12385;51.412;5.540;2022-07-03T12:04:06;2.63;;;0.60;;
24261;SDS011;12385;51.412;5.540;2022-07-03T12:06:43;1.38;;;0.52;;
24261;SDS011;12385;51.412;5.540;2022-07-03T12:09:23;2.03;;;0.68;;
24261;SDS011;12385;51.412;5.540;2022-07-03T12:11:52;2.33;;;0.60;;
24261;SDS011;12385;51.412;5.540;2022-07-03T12:17:20;2.83;;;0.60;;
24261;SDS011;12385;51.412;5.540;2022-07-03T12:22:30;2.30;;;0.65;;
24261;SDS011;12385;51.412;5.540;2022-07-03T12:27:31;3.88;;;0.68;;
24261;SDS011;12385;51.412;5.540;2022-07-03T12:30:02;2.30;;;0.50;;
24261;SDS011;12385;51.412;5.540;2022-07-03T12:32:29;1.58;;;0.70;;
24261;SDS011;12385;51.412;5.540;2022-07-03T12:34:55;2.58;;;0.70;;
24261;SDS011;12385;51.412;5.540;2022-07-03T12:37:31;1.67;;;0.50;;
24261;SDS011;12385;51.412;5.540;2022-07-03T12:39:59;5.00;;;0.73;;
24261;SDS011;12385;51.412;5.540;2022-07-03T12:42:25;4.28;;;0.73;;
24261;SDS011;12385;51.412;5.540;2022-07-03T12:44:54;1.70;;;0.40;;
24261;SDS011;12385;51.412;5.540;2022-07-03T12:47:27;5.22;;;0.90;;
24261;SDS011;12385;51.412;5.540;2022-07-03T12:49:55;2.17;;;0.60;;
24261;SDS011;12385;51.412;5.540;2022-07-03T12:52:22;3.35;;;0.80;;
24261;SDS011;12385;51.412;5.540;2022-07-03T12:54:48;5.22;;;1.23;;
24261;SDS011;12385;51.412;5.540;2022-07-03T12:57:13;7.20;;;0.70;;
24261;SDS011;12385;51.412;5.540;2022-07-03T13:02:26;2.57;;;0.60;;
24261;SDS011;12385;51.412;5.540;2022-07-03T13:04:53;2.13;;;0.50;;
24261;SDS011;12385;51.412;5.540;2022-07-03T13:07:19;1.25;;;0.40;;
24261;SDS011;12385;51.412;5.540;2022-07-03T13:09:51;2.20;;;0.60;;
24261;SDS011;12385;51.412;5.540;2022-07-03T13:12:21;5.20;;;0.60;;
24261;SDS011;12385;51.412;5.540;2022-07-03T13:15:00;2.58;;;0.68;;
24261;SDS011;12385;51.412;5.540;2022-07-03T13:20:15;2.67;;;0.47;;
24261;SDS011;12385;51.412;5.540;2022-07-03T13:22:42;2.03;;;0.50;;
24261;SDS011;12385;51.412;5.540;2022-07-03T13:25:07;3.13;;;0.50;;
24261;SDS011;12385;51.412;5.540;2022-07-03T13:27:33;2.03;;;0.52;;
24261;SDS011;12385;51.412;5.540;2022-07-03T13:29:59;1.67;;;0.52;;
24261;SDS011;12385;51.412;5.540;2022-07-03T13:32:24;2.20;;;0.45;;
24261;SDS011;12385;51.412;5.540;2022-07-03T13:34:50;1.83;;;0.55;;
24261;SDS011;12385;51.412;5.540;2022-07-03T13:37:16;1.45;;;0.40;;
24261;SDS011;12385;51.412;5.540;2022-07-03T13:39:42;3.17;;;0.63;;
24261;SDS011;12385;51.412;5.540;2022-07-03T13:42:08;1.50;;;0.50;;
24261;SDS011;12385;51.412;5.540;2022-07-03T13:44:35;2.72;;;0.50;;
24261;SDS011;12385;51.412;5.540;2022-07-03T13:47:02;1.55;;;0.40;;
24261;SDS011;12385;51.412;5.540;2022-07-03T13:49:30;2.05;;;0.43;;
24261;SDS011;12385;51.412;5.540;2022-07-03T13:51:56;3.75;;;0.60;;
24261;SDS011;12385;51.412;5.540;2022-07-03T13:54:23;3.80;;;0.60;;
24261;SDS011;12385;51.412;5.540;2022-07-03T13:56:49;2.80;;;0.40;;
24261;SDS011;12385;51.412;5.540;2022-07-03T13:59:15;0.93;;;0.30;;
24261;SDS011;12385;51.412;5.540;2022-07-03T14:01:41;4.00;;;0.43;;
24261;SDS011;12385;51.412;5.540;2022-07-03T14:04:06;2.33;;;0.57;;
24261;SDS011;12385;51.412;5.540;2022-07-03T14:06:34;5.53;;;0.45;;
24261;SDS011;12385;51.412;5.540;2022-07-03T14:09:00;1.77;;;0.40;;
24261;SDS011;12385;51.412;5.540;2022-07-03T14:11:26;1.13;;;0.30;;
24261;SDS011;12385;51.412;5.540;2022-07-03T14:13:53;2.67;;;0.65;;
24261;SDS011;12385;51.412;5.540;2022-07-03T14:16:18;1.05;;;0.43;;
24261;SDS011;12385;51.412;5.540;2022-07-03T14:18:44;2.40;;;0.57;;
24261;SDS011;12385;51.412;5.540;2022-07-03T14:21:10;5.80;;;0.90;;
24261;SDS011;12385;51.412;5.540;2022-07-03T14:23:36;3.95;;;0.88;;
24261;SDS011;12385;51.412;5.540;2022-07-03T14:26:02;2.88;;;1.00;;
24261;SDS011;12385;51.412;5.540;2022-07-03T14:28:29;3.13;;;0.60;;
24261;SDS011;12385;51.412;5.540;2022-07-03T14:31:13;4.72;;;0.73;;
24261;SDS011;12385;51.412;5.540;2022-07-03T14:33:51;3.35;;;0.80;;
24261;SDS011;12385;51.412;5.540;2022-07-03T14:36:17;2.50;;;0.55;;
24261;SDS011;12385;51.412;5.540;2022-07-03T14:38:43;5.30;;;0.85;;
24261;SDS011;12385;51.412;5.540;2022-07-03T14:41:09;3.10;;;0.80;;
24261;SDS011;12385;51.412;5.540;2022-07-03T14:43:35;3.15;;;0.80;;
24261;SDS011;12385;51.412;5.540;2022-07-03T14:46:01;3.60;;;0.85;;
24261;SDS011;12385;51.412;5.540;2022-07-03T14:48:27;2.15;;;0.75;;
24261;SDS011;12385;51.412;5.540;2022-07-03T14:50:53;3.17;;;0.98;;
24261;SDS011;12385;51.412;5.540;2022-07-03T14:53:21;3.72;;;1.00;;
24261;SDS011;12385;51.412;5.540;2022-07-03T14:55:47;2.47;;;0.82;;
24261;SDS011;12385;51.412;5.540;2022-07-03T14:58:15;5.28;;;0.82;;
24261;SDS011;12385;51.412;5.540;2022-07-03T15:00:48;2.10;;;0.60;;
24261;SDS011;12385;51.412;5.540;2022-07-03T15:03:19;5.15;;;0.82;;
24261;SDS011;12385;51.412;5.540;2022-07-03T15:05:50;3.58;;;0.90;;
24261;SDS011;12385;51.412;5.540;2022-07-03T15:10:51;2.75;;;0.80;;
24261;SDS011;12385;51.412;5.540;2022-07-03T15:13:18;2.53;;;0.70;;
24261;SDS011;12385;51.412;5.540;2022-07-03T15:15:45;3.75;;;1.08;;
24261;SDS011;12385;51.412;5.540;2022-07-03T15:18:16;4.43;;;0.98;;
24261;SDS011;12385;51.412;5.540;2022-07-03T15:20:43;1.95;;;0.77;;
24261;SDS011;12385;51.412;5.540;2022-07-03T15:23:09;3.17;;;0.73;;
24261;SDS011;12385;51.412;5.540;2022-07-03T15:25:37;2.67;;;0.50;;
24261;SDS011;12385;51.412;5.540;2022-07-03T15:28:04;3.90;;;0.73;;
24261;SDS011;12385;51.412;5.540;2022-07-03T15:32:59;4.22;;;0.73;;
24261;SDS011;12385;51.412;5.540;2022-07-03T15:35:25;4.22;;;0.90;;
24261;SDS011;12385;51.412;5.540;2022-07-03T15:43:27;2.78;;;0.65;;
24261;SDS011;12385;51.412;5.540;2022-07-03T15:46:19;2.85;;;0.70;;
24261;SDS011;12385;51.412;5.540;2022-07-03T15:54:06;4.30;;;0.90;;
24261;SDS011;12385;51.412;5.540;2022-07-03T15:56:35;4.70;;;0.50;;
24261;SDS011;12385;51.412;5.540;2022-07-03T15:59:03;2.72;;;0.70;;
24261;SDS011;12385;51.412;5.540;2022-07-03T16:01:32;4.45;;;0.80;;
24261;SDS011;12385;51.412;5.540;2022-07-03T16:05:09;4.85;;;0.88;;
24261;SDS011;12385;51.412;5.540;2022-07-03T16:07:11;2.95;;;0.70;;
24261;SDS011;12385;51.412;5.540;2022-07-03T16:09:40;2.53;;;0.63;;
24261;SDS011;12385;51.412;5.540;2022-07-03T16:12:06;14.27;;;0.82;;
24261;SDS011;12385;51.412;5.540;2022-07-03T16:14:40;4.78;;;0.68;;
24261;SDS011;12385;51.412;5.540;2022-07-03T16:17:07;3.30;;;0.70;;
24261;SDS011;12385;51.412;5.540;2022-07-03T16:19:33;2.83;;;0.50;;
24261;SDS011;12385;51.412;5.540;2022-07-03T16:22:00;3.28;;;0.60;;
24261;SDS011;12385;51.412;5.540;2022-07-03T16:24:26;3.92;;;0.73;;
24261;SDS011;12385;51.412;5.540;2022-07-03T16:26:54;4.95;;;0.73;;
24261;SDS011;12385;51.412;5.540;2022-07-03T16:29:20;1.55;;;0.50;;